sensor_id;sensor_type;location;lat;lon;timestamp;temperature;humidity
70734;DHT22;58320;48.804;9.252;2023-06-22T00:02:17;20.90;78.50
70734;DHT22;58320;48.804;9.252;2023-06-22T00:04:43;20.80;78.80
70734;DHT22;58320;48.804;9.252;2023-06-22T00:07:09;20.80;79.30
70734;DHT22;58320;48.804;9.252;2023-06-22T00:09:35;20.80;79.60
70734;DHT22;58320;48.804;9.252;2023-06-22T00:12:01;20.70;79.80
70734;DHT22;58320;48.804;9.252;2023-06-22T00:14:27;20.70;79.70
70734;DHT22;58320;48.804;9.252;2023-06-22T00:16:53;20.70;80.00
70734;DHT22;58320;48.804;9.252;2023-06-22T00:19:23;20.60;80.20
70734;DHT22;58320;48.804;9.252;2023-06-22T00:21:50;20.50;80.50
70734;DHT22;58320;48.804;9.252;2023-06-22T00:24:20;20.40;81.00
70734;DHT22;58320;48.804;9.252;2023-06-22T00:26:47;20.40;81.30
70734;DHT22;58320;48.804;9.252;2023-06-22T00:29:14;20.30;82.00
70734;DHT22;58320;48.804;9.252;2023-06-22T00:31:39;20.30;82.40
70734;DHT22;58320;48.804;9.252;2023-06-22T00:34:05;20.30;82.10
70734;DHT22;58320;48.804;9.252;2023-06-22T00:36:32;20.30;82.10
70734;DHT22;58320;48.804;9.252;2023-06-22T00:38:57;20.30;82.60
70734;DHT22;58320;48.804;9.252;2023-06-22T00:41:23;20.20;82.30
70734;DHT22;58320;48.804;9.252;2023-06-22T00:43:49;20.30;83.00
70734;DHT22;58320;48.804;9.252;2023-06-22T00:46:15;20.30;83.00
70734;DHT22;58320;48.804;9.252;2023-06-22T00:48:41;20.30;82.60
70734;DHT22;58320;48.804;9.252;2023-06-22T00:51:10;20.30;82.30
70734;DHT22;58320;48.804;9.252;2023-06-22T00:53:35;20.30;82.30
70734;DHT22;58320;48.804;9.252;2023-06-22T00:56:02;20.30;82.20
70734;DHT22;58320;48.804;9.252;2023-06-22T00:58:29;20.30;82.40
70734;DHT22;58320;48.804;9.252;2023-06-22T01:00:55;20.30;82.70
70734;DHT22;58320;48.804;9.252;2023-06-22T01:03:22;20.20;83.00
70734;DHT22;58320;48.804;9.252;2023-06-22T01:05:48;20.20;83.40
70734;DHT22;58320;48.804;9.252;2023-06-22T01:08:33;20.20;83.40
70734;DHT22;58320;48.804;9.252;2023-06-22T01:11:07;20.10;84.00
70734;DHT22;58320;48.804;9.252;2023-06-22T01:16:41;20.10;84.80
70734;DHT22;58320;48.804;9.252;2023-06-22T01:21:53;20.00;84.40
70734;DHT22;58320;48.804;9.252;2023-06-22T01:24:27;20.00;84.60
70734;DHT22;58320;48.804;9.252;2023-06-22T01:29:41;20.00;85.00
70734;DHT22;58320;48.804;9.252;2023-06-22T01:32:09;19.90;85.30
70734;DHT22;58320;48.804;9.252;2023-06-22T01:34:37;19.90;85.40
70734;DHT22;58320;48.804;9.252;2023-06-22T01:37:06;19.90;85.40
70734;DHT22;58320;48.804;9.252;2023-06-22T01:39:32;19.90;85.70
70734;DHT22;58320;48.804;9.252;2023-06-22T01:41:59;19.90;85.30
70734;DHT22;58320;48.804;9.252;2023-06-22T01:44:25;19.90;85.60
70734;DHT22;58320;48.804;9.252;2023-06-22T01:46:52;19.90;85.50
70734;DHT22;58320;48.804;9.252;2023-06-22T01:49:18;19.90;85.80
70734;DHT22;58320;48.804;9.252;2023-06-22T01:51:44;19.80;86.10
70734;DHT22;58320;48.804;9.252;2023-06-22T01:54:10;19.90;85.70
70734;DHT22;58320;48.804;9.252;2023-06-22T01:56:36;19.80;85.70
70734;DHT22;58320;48.804;9.252;2023-06-22T01:59:29;19.80;85.90
70734;DHT22;58320;48.804;9.252;2023-06-22T02:02:09;19.80;86.30
70734;DHT22;58320;48.804;9.252;2023-06-22T02:04:41;19.80;86.20
70734;DHT22;58320;48.804;9.252;2023-06-22T02:07:13;19.70;86.20
70734;DHT22;58320;48.804;9.252;2023-06-22T02:09:44;19.60;86.40
70734;DHT22;58320;48.804;9.252;2023-06-22T02:12:13;19.60;87.20
70734;DHT22;58320;48.804;9.252;2023-06-22T02:14:42;19.60;87.10
70734;DHT22;58320;48.804;9.252;2023-06-22T02:17:09;19.60;86.80
70734;DHT22;58320;48.804;9.252;2023-06-22T02:19:38;19.50;87.00
70734;DHT22;58320;48.804;9.252;2023-06-22T02:22:06;19.50;87.50
70734;DHT22;58320;48.804;9.252;2023-06-22T02:24:32;19.50;87.60
70734;DHT22;58320;48.804;9.252;2023-06-22T02:26:59;19.50;87.50
70734;DHT22;58320;48.804;9.252;2023-06-22T02:29:26;19.40;87.60
70734;DHT22;58320;48.804;9.252;2023-06-22T02:31:53;19.40;87.80
70734;DHT22;58320;48.804;9.252;2023-06-22T02:34:19;19.40;88.00
70734;DHT22;58320;48.804;9.252;2023-06-22T02:36:48;19.30;88.30
70734;DHT22;58320;48.804;9.252;2023-06-22T02:39:21;19.30;88.80
70734;DHT22;58320;48.804;9.252;2023-06-22T02:41:50;19.30;88.90
70734;DHT22;58320;48.804;9.252;2023-06-22T02:44:16;19.20;88.60
70734;DHT22;58320;48.804;9.252;2023-06-22T02:46:42;19.20;88.90
70734;DHT22;58320;48.804;9.252;2023-06-22T02:49:08;19.10;89.20
70734;DHT22;58320;48.804;9.252;2023-06-22T02:51:34;19.00;89.50
70734;DHT22;58320;48.804;9.252;2023-06-22T02:54:01;19.00;90.60
70734;DHT22;58320;48.804;9.252;2023-06-22T02:56:28;19.10;90.10
70734;DHT22;58320;48.804;9.252;2023-06-22T02:58:56;19.00;90.40
70734;DHT22;58320;48.804;9.252;2023-06-22T03:01:26;19.00;90.90
70734;DHT22;58320;48.804;9.252;2023-06-22T03:03:56;19.00;90.90
70734;DHT22;58320;48.804;9.252;2023-06-22T03:06:22;19.00;90.90
70734;DHT22;58320;48.804;9.252;2023-06-22T03:08:49;19.00;91.00
70734;DHT22;58320;48.804;9.252;2023-06-22T03:11:15;18.90;90.90
70734;DHT22;58320;48.804;9.252;2023-06-22T03:13:41;18.90;91.10
70734;DHT22;58320;48.804;9.252;2023-06-22T03:16:07;18.90;91.20
70734;DHT22;58320;48.804;9.252;2023-06-22T03:18:32;18.90;91.20
70734;DHT22;58320;48.804;9.252;2023-06-22T03:20:58;18.90;91.30
70734;DHT22;58320;48.804;9.252;2023-06-22T03:23:24;18.90;91.20
70734;DHT22;58320;48.804;9.252;2023-06-22T03:25:50;18.80;91.30
70734;DHT22;58320;48.804;9.252;2023-06-22T03:28:15;18.80;91.70
70734;DHT22;58320;48.804;9.252;2023-06-22T03:30:41;18.80;91.80
70734;DHT22;58320;48.804;9.252;2023-06-22T03:33:07;18.80;92.30
70734;DHT22;58320;48.804;9.252;2023-06-22T03:35:33;18.90;92.20
70734;DHT22;58320;48.804;9.252;2023-06-22T03:37:58;18.90;91.90
70734;DHT22;58320;48.804;9.252;2023-06-22T03:40:24;18.90;91.40
70734;DHT22;58320;48.804;9.252;2023-06-22T03:42:50;18.80;91.20
70734;DHT22;58320;48.804;9.252;2023-06-22T03:45:16;18.80;91.40
70734;DHT22;58320;48.804;9.252;2023-06-22T03:47:41;18.80;91.40
70734;DHT22;58320;48.804;9.252;2023-06-22T03:50:07;18.80;91.50
70734;DHT22;58320;48.804;9.252;2023-06-22T03:52:33;18.90;92.00
70734;DHT22;58320;48.804;9.252;2023-06-22T03:54:59;18.90;91.70
70734;DHT22;58320;48.804;9.252;2023-06-22T03:57:25;18.90;91.40
70734;DHT22;58320;48.804;9.252;2023-06-22T03:59:50;18.90;91.20
70734;DHT22;58320;48.804;9.252;2023-06-22T04:02:16;18.90;91.20
70734;DHT22;58320;48.804;9.252;2023-06-22T04:04:42;18.90;91.20
70734;DHT22;58320;48.804;9.252;2023-06-22T04:07:07;19.00;91.30
70734;DHT22;58320;48.804;9.252;2023-06-22T04:09:34;19.00;91.20
70734;DHT22;58320;48.804;9.252;2023-06-22T04:12:00;19.00;91.20
70734;DHT22;58320;48.804;9.252;2023-06-22T04:14:26;19.10;91.10
70734;DHT22;58320;48.804;9.252;2023-06-22T04:16:52;19.10;90.80
70734;DHT22;58320;48.804;9.252;2023-06-22T04:19:18;19.20;90.60
70734;DHT22;58320;48.804;9.252;2023-06-22T04:21:44;19.20;90.40
70734;DHT22;58320;48.804;9.252;2023-06-22T04:24:11;19.30;90.10
70734;DHT22;58320;48.804;9.252;2023-06-22T04:26:37;19.30;89.90
70734;DHT22;58320;48.804;9.252;2023-06-22T04:29:03;19.30;89.70
70734;DHT22;58320;48.804;9.252;2023-06-22T04:31:32;19.30;89.20
70734;DHT22;58320;48.804;9.252;2023-06-22T04:34:02;19.40;89.10
70734;DHT22;58320;48.804;9.252;2023-06-22T04:39:04;19.40;88.80
70734;DHT22;58320;48.804;9.252;2023-06-22T04:41:38;19.50;88.40
70734;DHT22;58320;48.804;9.252;2023-06-22T04:44:18;19.60;88.10
70734;DHT22;58320;48.804;9.252;2023-06-22T04:49:25;19.90;87.30
70734;DHT22;58320;48.804;9.252;2023-06-22T04:51:58;20.00;86.60
70734;DHT22;58320;48.804;9.252;2023-06-22T04:54:25;20.10;85.90
70734;DHT22;58320;48.804;9.252;2023-06-22T04:56:51;20.20;85.40
70734;DHT22;58320;48.804;9.252;2023-06-22T04:59:26;20.20;84.70
70734;DHT22;58320;48.804;9.252;2023-06-22T05:01:55;20.30;83.60
70734;DHT22;58320;48.804;9.252;2023-06-22T05:04:25;20.40;83.70
70734;DHT22;58320;48.804;9.252;2023-06-22T05:06:53;20.50;82.90
70734;DHT22;58320;48.804;9.252;2023-06-22T05:09:20;20.60;82.80
70734;DHT22;58320;48.804;9.252;2023-06-22T05:11:46;20.70;82.30
70734;DHT22;58320;48.804;9.252;2023-06-22T05:14:12;20.80;80.90
70734;DHT22;58320;48.804;9.252;2023-06-22T05:16:38;20.90;81.00
70734;DHT22;58320;48.804;9.252;2023-06-22T05:19:06;21.00;80.60
70734;DHT22;58320;48.804;9.252;2023-06-22T05:21:31;21.10;79.90
70734;DHT22;58320;48.804;9.252;2023-06-22T05:23:58;21.20;79.30
70734;DHT22;58320;48.804;9.252;2023-06-22T05:26:32;21.40;79.20
70734;DHT22;58320;48.804;9.252;2023-06-22T05:29:00;21.40;78.20
70734;DHT22;58320;48.804;9.252;2023-06-22T05:31:28;21.50;78.30
70734;DHT22;58320;48.804;9.252;2023-06-22T05:33:55;21.70;77.20
70734;DHT22;58320;48.804;9.252;2023-06-22T05:36:21;21.70;76.90
70734;DHT22;58320;48.804;9.252;2023-06-22T05:38:52;21.70;76.60
70734;DHT22;58320;48.804;9.252;2023-06-22T05:41:18;21.80;76.20
70734;DHT22;58320;48.804;9.252;2023-06-22T05:43:44;22.00;75.80
70734;DHT22;58320;48.804;9.252;2023-06-22T05:46:10;22.10;74.90
70734;DHT22;58320;48.804;9.252;2023-06-22T05:48:36;22.10;75.00
70734;DHT22;58320;48.804;9.252;2023-06-22T05:51:02;22.20;74.50
70734;DHT22;58320;48.804;9.252;2023-06-22T05:53:28;22.20;73.40
70734;DHT22;58320;48.804;9.252;2023-06-22T05:55:54;22.10;74.30
70734;DHT22;58320;48.804;9.252;2023-06-22T05:58:20;22.20;73.90
70734;DHT22;58320;48.804;9.252;2023-06-22T06:00:45;22.30;73.30
70734;DHT22;58320;48.804;9.252;2023-06-22T06:03:12;22.40;73.30
70734;DHT22;58320;48.804;9.252;2023-06-22T06:05:37;22.50;73.00
70734;DHT22;58320;48.804;9.252;2023-06-22T06:08:05;22.60;72.80
70734;DHT22;58320;48.804;9.252;2023-06-22T06:10:32;22.60;73.10
70734;DHT22;58320;48.804;9.252;2023-06-22T06:12:59;22.60;72.60
70734;DHT22;58320;48.804;9.252;2023-06-22T06:15:27;22.40;72.80
70734;DHT22;58320;48.804;9.252;2023-06-22T06:17:54;22.40;72.70
70734;DHT22;58320;48.804;9.252;2023-06-22T06:20:22;22.30;73.10
70734;DHT22;58320;48.804;9.252;2023-06-22T06:22:49;22.30;73.40
70734;DHT22;58320;48.804;9.252;2023-06-22T06:25:15;22.40;73.40
70734;DHT22;58320;48.804;9.252;2023-06-22T06:27:46;22.40;73.60
70734;DHT22;58320;48.804;9.252;2023-06-22T06:30:13;22.50;73.00
70734;DHT22;58320;48.804;9.252;2023-06-22T06:32:41;22.70;72.40
70734;DHT22;58320;48.804;9.252;2023-06-22T06:35:08;22.90;71.10
70734;DHT22;58320;48.804;9.252;2023-06-22T06:37:39;23.10;70.90
70734;DHT22;58320;48.804;9.252;2023-06-22T06:40:11;23.30;70.20
70734;DHT22;58320;48.804;9.252;2023-06-22T06:42:42;23.60;69.20
70734;DHT22;58320;48.804;9.252;2023-06-22T06:45:19;23.70;68.50
70734;DHT22;58320;48.804;9.252;2023-06-22T06:47:47;23.80;67.20
70734;DHT22;58320;48.804;9.252;2023-06-22T06:50:15;24.00;66.90
70734;DHT22;58320;48.804;9.252;2023-06-22T06:52:41;24.30;66.20
70734;DHT22;58320;48.804;9.252;2023-06-22T06:55:07;24.40;65.80
70734;DHT22;58320;48.804;9.252;2023-06-22T06:57:37;24.60;65.20
70734;DHT22;58320;48.804;9.252;2023-06-22T07:00:05;24.60;64.90
70734;DHT22;58320;48.804;9.252;2023-06-22T07:02:35;24.80;64.70
70734;DHT22;58320;48.804;9.252;2023-06-22T07:05:01;24.90;64.40
70734;DHT22;58320;48.804;9.252;2023-06-22T07:07:29;24.80;63.60
70734;DHT22;58320;48.804;9.252;2023-06-22T07:09:55;24.90;63.20
70734;DHT22;58320;48.804;9.252;2023-06-22T07:12:21;25.00;64.20
70734;DHT22;58320;48.804;9.252;2023-06-22T07:14:47;25.10;63.20
70734;DHT22;58320;48.804;9.252;2023-06-22T07:17:13;25.30;62.70
70734;DHT22;58320;48.804;9.252;2023-06-22T07:19:38;25.50;62.00
70734;DHT22;58320;48.804;9.252;2023-06-22T07:22:04;25.60;61.80
70734;DHT22;58320;48.804;9.252;2023-06-22T07:24:30;25.80;61.40
70734;DHT22;58320;48.804;9.252;2023-06-22T07:26:58;25.90;61.20
70734;DHT22;58320;48.804;9.252;2023-06-22T07:29:25;26.00;60.60
70734;DHT22;58320;48.804;9.252;2023-06-22T07:31:52;26.10;60.50
70734;DHT22;58320;48.804;9.252;2023-06-22T07:34:18;26.20;60.40
70734;DHT22;58320;48.804;9.252;2023-06-22T07:36:44;26.30;60.50
70734;DHT22;58320;48.804;9.252;2023-06-22T07:39:11;26.40;59.90
70734;DHT22;58320;48.804;9.252;2023-06-22T07:41:39;26.60;59.30
70734;DHT22;58320;48.804;9.252;2023-06-22T07:44:06;26.60;59.10
70734;DHT22;58320;48.804;9.252;2023-06-22T07:46:33;26.60;59.50
70734;DHT22;58320;48.804;9.252;2023-06-22T07:48:59;26.80;58.90
70734;DHT22;58320;48.804;9.252;2023-06-22T07:51:27;26.80;58.80
70734;DHT22;58320;48.804;9.252;2023-06-22T07:53:53;27.00;59.00
70734;DHT22;58320;48.804;9.252;2023-06-22T07:56:32;27.10;58.30
70734;DHT22;58320;48.804;9.252;2023-06-22T07:58:58;27.20;57.10
70734;DHT22;58320;48.804;9.252;2023-06-22T08:01:26;27.20;56.90
70734;DHT22;58320;48.804;9.252;2023-06-22T08:03:51;27.20;56.40
70734;DHT22;58320;48.804;9.252;2023-06-22T08:06:17;27.30;56.60
70734;DHT22;58320;48.804;9.252;2023-06-22T08:08:44;27.40;56.80
70734;DHT22;58320;48.804;9.252;2023-06-22T08:11:13;27.40;56.60
70734;DHT22;58320;48.804;9.252;2023-06-22T08:13:39;27.50;55.80
70734;DHT22;58320;48.804;9.252;2023-06-22T08:16:05;27.50;55.90
70734;DHT22;58320;48.804;9.252;2023-06-22T08:18:30;27.60;55.70
70734;DHT22;58320;48.804;9.252;2023-06-22T08:20:56;27.70;54.80
70734;DHT22;58320;48.804;9.252;2023-06-22T08:23:22;27.90;55.30
70734;DHT22;58320;48.804;9.252;2023-06-22T08:25:47;28.10;54.60
70734;DHT22;58320;48.804;9.252;2023-06-22T08:28:15;28.40;53.50
70734;DHT22;58320;48.804;9.252;2023-06-22T08:30:41;28.70;53.70
70734;DHT22;58320;48.804;9.252;2023-06-22T08:33:07;28.90;53.00
70734;DHT22;58320;48.804;9.252;2023-06-22T08:35:32;29.20;52.60
70734;DHT22;58320;48.804;9.252;2023-06-22T08:37:58;29.40;51.40
70734;DHT22;58320;48.804;9.252;2023-06-22T08:40:25;29.50;50.60
70734;DHT22;58320;48.804;9.252;2023-06-22T08:42:51;29.40;50.50
70734;DHT22;58320;48.804;9.252;2023-06-22T08:45:17;29.30;50.90
70734;DHT22;58320;48.804;9.252;2023-06-22T08:47:43;29.40;50.60
70734;DHT22;58320;48.804;9.252;2023-06-22T08:50:10;29.60;51.40
70734;DHT22;58320;48.804;9.252;2023-06-22T08:52:37;29.80;49.60
70734;DHT22;58320;48.804;9.252;2023-06-22T08:55:04;29.80;49.40
70734;DHT22;58320;48.804;9.252;2023-06-22T08:57:30;29.60;49.90
70734;DHT22;58320;48.804;9.252;2023-06-22T08:59:56;29.40;50.00
70734;DHT22;58320;48.804;9.252;2023-06-22T09:02:25;29.30;50.00
70734;DHT22;58320;48.804;9.252;2023-06-22T09:04:52;29.40;50.20
70734;DHT22;58320;48.804;9.252;2023-06-22T09:07:22;29.80;50.10
70734;DHT22;58320;48.804;9.252;2023-06-22T09:09:49;30.30;49.10
70734;DHT22;58320;48.804;9.252;2023-06-22T09:12:16;30.70;48.30
70734;DHT22;58320;48.804;9.252;2023-06-22T09:14:42;30.80;47.30
70734;DHT22;58320;48.804;9.252;2023-06-22T09:17:08;30.60;47.50
70734;DHT22;58320;48.804;9.252;2023-06-22T09:19:33;30.30;47.60
70734;DHT22;58320;48.804;9.252;2023-06-22T09:22:00;30.20;48.10
70734;DHT22;58320;48.804;9.252;2023-06-22T09:24:26;30.00;49.10
70734;DHT22;58320;48.804;9.252;2023-06-22T09:26:51;30.20;48.60
70734;DHT22;58320;48.804;9.252;2023-06-22T09:29:17;30.30;47.70
70734;DHT22;58320;48.804;9.252;2023-06-22T09:31:43;30.20;48.40
70734;DHT22;58320;48.804;9.252;2023-06-22T09:34:10;30.00;48.60
70734;DHT22;58320;48.804;9.252;2023-06-22T09:36:40;30.10;49.80
70734;DHT22;58320;48.804;9.252;2023-06-22T09:39:13;30.30;48.30
70734;DHT22;58320;48.804;9.252;2023-06-22T09:41:39;30.60;47.70
70734;DHT22;58320;48.804;9.252;2023-06-22T09:44:04;30.70;47.70
70734;DHT22;58320;48.804;9.252;2023-06-22T09:46:31;30.70;47.00
70734;DHT22;58320;48.804;9.252;2023-06-22T09:48:57;30.40;47.70
70734;DHT22;58320;48.804;9.252;2023-06-22T09:51:23;30.30;47.50
70734;DHT22;58320;48.804;9.252;2023-06-22T09:53:52;30.20;47.90
70734;DHT22;58320;48.804;9.252;2023-06-22T09:56:22;30.30;47.80
70734;DHT22;58320;48.804;9.252;2023-06-22T09:58:48;30.30;48.20
70734;DHT22;58320;48.804;9.252;2023-06-22T10:01:18;30.60;48.20
70734;DHT22;58320;48.804;9.252;2023-06-22T10:03:44;30.80;47.50
70734;DHT22;58320;48.804;9.252;2023-06-22T10:06:13;31.10;46.60
70734;DHT22;58320;48.804;9.252;2023-06-22T10:08:39;31.50;45.70
70734;DHT22;58320;48.804;9.252;2023-06-22T10:11:08;31.80;45.50
70734;DHT22;58320;48.804;9.252;2023-06-22T10:13:35;32.00;45.50
70734;DHT22;58320;48.804;9.252;2023-06-22T10:16:00;32.40;44.80
70734;DHT22;58320;48.804;9.252;2023-06-22T10:18:26;32.30;44.30
70734;DHT22;58320;48.804;9.252;2023-06-22T10:20:52;32.60;44.30
70734;DHT22;58320;48.804;9.252;2023-06-22T10:23:20;32.80;43.00
70734;DHT22;58320;48.804;9.252;2023-06-22T10:25:46;32.80;42.70
70734;DHT22;58320;48.804;9.252;2023-06-22T10:28:12;32.90;43.80
70734;DHT22;58320;48.804;9.252;2023-06-22T10:30:42;33.30;43.70
70734;DHT22;58320;48.804;9.252;2023-06-22T10:33:09;33.40;43.50
70734;DHT22;58320;48.804;9.252;2023-06-22T10:35:35;33.50;42.90
70734;DHT22;58320;48.804;9.252;2023-06-22T10:38:05;33.70;43.40
70734;DHT22;58320;48.804;9.252;2023-06-22T10:40:31;33.70;43.40
70734;DHT22;58320;48.804;9.252;2023-06-22T10:42:57;33.50;43.50
70734;DHT22;58320;48.804;9.252;2023-06-22T10:45:23;33.50;43.80
70734;DHT22;58320;48.804;9.252;2023-06-22T10:47:48;33.70;43.30
70734;DHT22;58320;48.804;9.252;2023-06-22T10:50:14;34.00;43.20
70734;DHT22;58320;48.804;9.252;2023-06-22T10:52:40;34.30;42.40
70734;DHT22;58320;48.804;9.252;2023-06-22T10:55:10;34.40;41.40
70734;DHT22;58320;48.804;9.252;2023-06-22T10:57:35;34.40;42.10
70734;DHT22;58320;48.804;9.252;2023-06-22T11:00:02;34.40;41.90
70734;DHT22;58320;48.804;9.252;2023-06-22T11:02:31;34.20;41.50
70734;DHT22;58320;48.804;9.252;2023-06-22T11:04:57;33.90;41.70
70734;DHT22;58320;48.804;9.252;2023-06-22T11:07:26;33.80;42.60
70734;DHT22;58320;48.804;9.252;2023-06-22T11:09:54;34.20;42.40
70734;DHT22;58320;48.804;9.252;2023-06-22T11:12:20;34.30;41.60
70734;DHT22;58320;48.804;9.252;2023-06-22T11:14:45;34.00;42.10
70734;DHT22;58320;48.804;9.252;2023-06-22T11:17:11;33.60;42.20
70734;DHT22;58320;48.804;9.252;2023-06-22T11:19:37;33.10;43.20
70734;DHT22;58320;48.804;9.252;2023-06-22T11:22:03;33.00;43.10
70734;DHT22;58320;48.804;9.252;2023-06-22T11:24:29;33.10;43.40
70734;DHT22;58320;48.804;9.252;2023-06-22T11:26:54;33.30;43.10
70734;DHT22;58320;48.804;9.252;2023-06-22T11:29:20;33.40;43.10
70734;DHT22;58320;48.804;9.252;2023-06-22T11:31:46;33.50;43.20
70734;DHT22;58320;48.804;9.252;2023-06-22T11:34:12;33.40;43.10
70734;DHT22;58320;48.804;9.252;2023-06-22T11:36:38;33.30;43.40
70734;DHT22;58320;48.804;9.252;2023-06-22T11:39:03;33.00;43.70
70734;DHT22;58320;48.804;9.252;2023-06-22T11:41:30;33.00;44.00
70734;DHT22;58320;48.804;9.252;2023-06-22T11:43:56;33.40;44.50
70734;DHT22;58320;48.804;9.252;2023-06-22T11:46:21;33.90;43.90
70734;DHT22;58320;48.804;9.252;2023-06-22T11:48:47;34.70;41.80
70734;DHT22;58320;48.804;9.252;2023-06-22T11:51:13;35.40;41.60
70734;DHT22;58320;48.804;9.252;2023-06-22T11:53:39;35.80;40.00
70734;DHT22;58320;48.804;9.252;2023-06-22T11:56:05;35.90;39.10
70734;DHT22;58320;48.804;9.252;2023-06-22T11:58:30;35.90;39.50
70734;DHT22;58320;48.804;9.252;2023-06-22T12:00:56;36.30;38.60
70734;DHT22;58320;48.804;9.252;2023-06-22T12:03:22;35.80;39.60
70734;DHT22;58320;48.804;9.252;2023-06-22T12:05:49;35.10;40.00
70734;DHT22;58320;48.804;9.252;2023-06-22T12:08:16;35.00;40.80
70734;DHT22;58320;48.804;9.252;2023-06-22T12:10:41;35.20;40.30
70734;DHT22;58320;48.804;9.252;2023-06-22T12:13:07;34.80;40.80
70734;DHT22;58320;48.804;9.252;2023-06-22T12:15:33;34.70;41.20
70734;DHT22;58320;48.804;9.252;2023-06-22T12:17:59;34.10;42.00
70734;DHT22;58320;48.804;9.252;2023-06-22T12:20:26;33.30;42.50
70734;DHT22;58320;48.804;9.252;2023-06-22T12:22:52;33.20;43.50
70734;DHT22;58320;48.804;9.252;2023-06-22T12:25:19;33.10;43.30
70734;DHT22;58320;48.804;9.252;2023-06-22T12:27:45;33.30;43.20
70734;DHT22;58320;48.804;9.252;2023-06-22T12:30:10;33.10;43.00
70734;DHT22;58320;48.804;9.252;2023-06-22T12:32:36;33.10;43.10
70734;DHT22;58320;48.804;9.252;2023-06-22T12:35:02;33.20;43.50
70734;DHT22;58320;48.804;9.252;2023-06-22T12:37:28;33.40;42.80
70734;DHT22;58320;48.804;9.252;2023-06-22T12:39:54;33.60;42.30
70734;DHT22;58320;48.804;9.252;2023-06-22T12:42:20;33.70;42.30
70734;DHT22;58320;48.804;9.252;2023-06-22T12:44:46;33.70;42.00
70734;DHT22;58320;48.804;9.252;2023-06-22T12:47:12;33.30;43.30
70734;DHT22;58320;48.804;9.252;2023-06-22T12:49:38;33.10;43.80
70734;DHT22;58320;48.804;9.252;2023-06-22T12:52:09;32.80;43.30
70734;DHT22;58320;48.804;9.252;2023-06-22T12:54:36;32.60;44.40
70734;DHT22;58320;48.804;9.252;2023-06-22T12:57:02;32.60;44.00
70734;DHT22;58320;48.804;9.252;2023-06-22T12:59:28;32.50;43.90
70734;DHT22;58320;48.804;9.252;2023-06-22T13:01:54;32.40;44.40
70734;DHT22;58320;48.804;9.252;2023-06-22T13:04:20;32.20;44.40
70734;DHT22;58320;48.804;9.252;2023-06-22T13:06:47;32.10;45.20
70734;DHT22;58320;48.804;9.252;2023-06-22T13:09:14;32.10;45.90
70734;DHT22;58320;48.804;9.252;2023-06-22T13:11:41;32.20;45.90
70734;DHT22;58320;48.804;9.252;2023-06-22T13:14:08;32.20;45.60
70734;DHT22;58320;48.804;9.252;2023-06-22T13:16:33;32.20;45.80
70734;DHT22;58320;48.804;9.252;2023-06-22T13:18:59;32.30;45.50
70734;DHT22;58320;48.804;9.252;2023-06-22T13:21:25;32.30;45.80
70734;DHT22;58320;48.804;9.252;2023-06-22T13:23:51;32.40;44.80
70734;DHT22;58320;48.804;9.252;2023-06-22T13:26:16;32.60;44.70
70734;DHT22;58320;48.804;9.252;2023-06-22T13:28:42;32.90;44.30
70734;DHT22;58320;48.804;9.252;2023-06-22T13:31:08;33.30;43.20
70734;DHT22;58320;48.804;9.252;2023-06-22T13:33:34;33.60;42.60
70734;DHT22;58320;48.804;9.252;2023-06-22T13:35:59;33.90;42.30
70734;DHT22;58320;48.804;9.252;2023-06-22T13:38:25;34.30;41.20
70734;DHT22;58320;48.804;9.252;2023-06-22T13:40:51;34.30;41.40
70734;DHT22;58320;48.804;9.252;2023-06-22T13:43:17;34.30;41.10
70734;DHT22;58320;48.804;9.252;2023-06-22T13:45:43;34.20;41.50
70734;DHT22;58320;48.804;9.252;2023-06-22T13:48:09;34.20;41.60
70734;DHT22;58320;48.804;9.252;2023-06-22T13:50:35;34.10;42.70
70734;DHT22;58320;48.804;9.252;2023-06-22T13:53:01;34.30;41.80
70734;DHT22;58320;48.804;9.252;2023-06-22T13:55:27;34.40;41.10
70734;DHT22;58320;48.804;9.252;2023-06-22T13:57:52;34.50;41.30
70734;DHT22;58320;48.804;9.252;2023-06-22T14:00:19;34.50;41.30
70734;DHT22;58320;48.804;9.252;2023-06-22T14:02:45;34.50;40.80
70734;DHT22;58320;48.804;9.252;2023-06-22T14:05:11;34.30;41.60
70734;DHT22;58320;48.804;9.252;2023-06-22T14:07:37;34.40;41.90
70734;DHT22;58320;48.804;9.252;2023-06-22T14:10:03;34.50;41.60
70734;DHT22;58320;48.804;9.252;2023-06-22T14:12:30;34.70;42.20
70734;DHT22;58320;48.804;9.252;2023-06-22T14:14:56;34.80;39.70
70734;DHT22;58320;48.804;9.252;2023-06-22T14:17:23;35.00;38.50
70734;DHT22;58320;48.804;9.252;2023-06-22T14:19:52;35.10;39.70
70734;DHT22;58320;48.804;9.252;2023-06-22T14:22:20;35.80;37.60
70734;DHT22;58320;48.804;9.252;2023-06-22T14:24:50;36.70;37.90
70734;DHT22;58320;48.804;9.252;2023-06-22T14:27:17;37.90;34.70
70734;DHT22;58320;48.804;9.252;2023-06-22T14:29:45;38.80;35.00
70734;DHT22;58320;48.804;9.252;2023-06-22T14:32:11;39.30;32.40
70734;DHT22;58320;48.804;9.252;2023-06-22T14:34:46;38.10;33.00
70734;DHT22;58320;48.804;9.252;2023-06-22T14:37:12;36.90;34.00
70734;DHT22;58320;48.804;9.252;2023-06-22T14:39:41;35.80;34.80
70734;DHT22;58320;48.804;9.252;2023-06-22T14:42:08;35.30;35.90
70734;DHT22;58320;48.804;9.252;2023-06-22T14:44:34;35.60;35.90
70734;DHT22;58320;48.804;9.252;2023-06-22T14:47:00;35.90;35.40
70734;DHT22;58320;48.804;9.252;2023-06-22T14:49:26;36.70;35.10
70734;DHT22;58320;48.804;9.252;2023-06-22T14:51:52;37.40;32.70
70734;DHT22;58320;48.804;9.252;2023-06-22T14:54:18;37.40;32.60
70734;DHT22;58320;48.804;9.252;2023-06-22T14:56:44;37.60;32.30
70734;DHT22;58320;48.804;9.252;2023-06-22T14:59:09;37.10;32.90
70734;DHT22;58320;48.804;9.252;2023-06-22T15:01:35;35.90;34.30
70734;DHT22;58320;48.804;9.252;2023-06-22T15:04:01;35.40;35.30
70734;DHT22;58320;48.804;9.252;2023-06-22T15:06:28;35.60;35.20
70734;DHT22;58320;48.804;9.252;2023-06-22T15:08:53;36.10;34.80
70734;DHT22;58320;48.804;9.252;2023-06-22T15:11:19;35.80;34.00
70734;DHT22;58320;48.804;9.252;2023-06-22T15:13:45;34.90;33.90
70734;DHT22;58320;48.804;9.252;2023-06-22T15:16:11;34.40;33.50
70734;DHT22;58320;48.804;9.252;2023-06-22T15:18:37;34.10;32.10
70734;DHT22;58320;48.804;9.252;2023-06-22T15:21:04;34.10;32.10
70734;DHT22;58320;48.804;9.252;2023-06-22T15:23:30;34.20;31.90
70734;DHT22;58320;48.804;9.252;2023-06-22T15:25:57;35.00;31.00
70734;DHT22;58320;48.804;9.252;2023-06-22T15:28:23;35.80;30.60
70734;DHT22;58320;48.804;9.252;2023-06-22T15:30:49;36.60;29.80
70734;DHT22;58320;48.804;9.252;2023-06-22T15:33:15;37.50;28.70
70734;DHT22;58320;48.804;9.252;2023-06-22T15:35:42;37.30;28.20
70734;DHT22;58320;48.804;9.252;2023-06-22T15:38:07;36.10;29.20
70734;DHT22;58320;48.804;9.252;2023-06-22T15:40:33;35.30;30.50
70734;DHT22;58320;48.804;9.252;2023-06-22T15:42:59;35.60;30.30